createdAt,value
2023-05-09T00:00:23.455Z,75.85
2023-05-09T00:05:26.284Z,75.97
2023-05-09T00:10:30.933Z,80.28
2023-05-09T00:15:33.591Z,85.80
2023-05-09T00:20:36.184Z,92.28
2023-05-09T00:25:40.113Z,92.82
2023-05-09T00:30:42.741Z,91.43
2023-05-09T00:35:45.301Z,100.22
2023-05-09T00:40:49.329Z,104.65
2023-05-09T00:45:52.157Z,103.68
2023-05-09T00:50:55.106Z,97.57
2023-05-09T00:56:01.014Z,91.95
2023-05-09T01:01:03.892Z,88.53
2023-05-09T01:06:14.206Z,95.43
2023-05-09T01:11:25.539Z,95.93
2023-05-09T01:16:36.288Z,101.30
2023-05-09T01:21:44.286Z,101.20
2023-05-09T01:27:07.093Z,106.35
2023-05-09T01:32:15.535Z,117.60
2023-05-09T01:37:23.267Z,117.05
2023-05-09T01:42:28.227Z,116.95
2023-05-09T01:47:32.378Z,112.43
2023-05-09T01:52:37.292Z,112.88
2023-05-09T01:57:41.163Z,126.80
2023-05-09T02:02:45.993Z,126.20
2023-05-09T02:07:49.493Z,127.75
2023-05-09T02:12:52.266Z,126.25
2023-05-09T02:17:56.693Z,127.40
2023-05-09T02:22:59.393Z,124.78
2023-05-09T02:28:03.527Z,121.95
2023-05-09T02:33:11.753Z,108.05
2023-05-09T02:38:15.442Z,117.20
2023-05-09T02:43:18.033Z,112.82
2023-05-09T02:48:21.960Z,115.00
2023-05-09T02:53:24.530Z,114.60
2023-05-09T02:58:27.185Z,114.18
2023-05-09T03:03:34.717Z,112.65
2023-05-09T03:08:37.447Z,113.30
2023-05-09T03:13:40.052Z,124.50
2023-05-09T03:18:44.034Z,124.65
2023-05-09T03:23:46.596Z,132.48
2023-05-09T03:28:49.676Z,113.57
2023-05-09T03:33:53.785Z,124.50
2023-05-09T03:38:56.383Z,134.65
2023-05-09T03:43:58.943Z,139.45
2023-05-09T03:49:04.331Z,142.38
2023-05-09T03:54:07.154Z,130.50
2023-05-09T03:59:09.716Z,147.07
2023-05-09T04:04:13.772Z,143.07
2023-05-09T04:09:16.502Z,125.85
2023-05-09T04:14:19.160Z,136.20
2023-05-09T04:19:23.157Z,127.60
2023-05-09T04:24:25.759Z,131.30
2023-05-09T04:29:28.425Z,127.47
2023-05-09T04:34:33.396Z,128.60
2023-05-09T04:39:35.984Z,140.60
2023-05-09T04:44:38.601Z,133.77
2023-05-09T04:49:42.644Z,128.68
2023-05-09T04:54:45.297Z,135.40
2023-05-09T04:59:47.872Z,129.75
2023-05-09T05:04:52.871Z,126.80
2023-05-09T05:09:56.955Z,130.00
2023-05-09T05:14:59.477Z,128.80
2023-05-09T05:20:06.371Z,135.32
2023-05-09T05:25:09.837Z,121.20
2023-05-09T05:30:15.428Z,118.22
2023-05-09T05:35:22.508Z,132.50
2023-05-09T05:40:25.195Z,113.38
2023-05-09T05:45:29.586Z,114.80
2023-05-09T05:50:33.966Z,103.55
2023-05-09T05:55:36.560Z,95.43
2023-05-09T06:00:39.181Z,94.43
2023-05-09T06:05:44.970Z,84.25
2023-05-09T06:10:47.600Z,96.78
2023-05-09T06:15:50.473Z,89.28
2023-05-09T06:20:54.415Z,75.38
2023-05-09T06:25:56.956Z,67.07
2023-05-09T06:30:59.618Z,71.88
2023-05-09T06:36:03.568Z,65.28
2023-05-09T06:41:06.428Z,60.78
2023-05-09T06:46:10.094Z,63.25
2023-05-09T06:51:14.118Z,57.30
2023-05-09T06:56:20.039Z,50.53
2023-05-09T07:01:22.967Z,45.17
2023-05-09T07:06:27.003Z,49.65
2023-05-09T07:11:29.679Z,42.97
2023-05-09T07:16:33.252Z,44.33
2023-05-09T07:21:38.580Z,44.90
2023-05-09T07:26:41.256Z,47.50
2023-05-09T07:31:43.907Z,42.28
2023-05-09T07:36:47.862Z,42.17
2023-05-09T07:41:50.412Z,31.55
2023-05-09T07:46:55.404Z,28.85
2023-05-09T07:51:59.452Z,31.95
2023-05-09T07:57:02.069Z,29.73
2023-05-09T08:02:04.745Z,30.05
2023-05-09T08:12:11.781Z,32.25
2023-05-09T08:17:16.206Z,29.05
2023-05-09T08:22:21.070Z,30.42
2023-05-09T08:27:24.262Z,30.48
2023-05-09T08:32:26.894Z,28.95
2023-05-09T08:47:36.772Z,30.37
2023-05-09T08:52:40.896Z,28.90
2023-05-09T08:57:43.791Z,27.27
2023-05-09T09:02:46.822Z,28.48
2023-05-09T09:07:51.614Z,26.55
2023-05-09T09:12:56.933Z,26.65
2023-05-09T09:18:07.136Z,20.58
2023-05-09T09:23:11.623Z,22.20
2023-05-09T09:28:14.307Z,17.75
2023-05-09T09:33:22.025Z,21.13
2023-05-09T09:38:26.789Z,19.17
2023-05-09T09:43:29.876Z,16.42
2023-05-09T09:48:34.605Z,14.65
2023-05-09T09:53:42.273Z,14.57
2023-05-09T09:58:44.930Z,13.57
2023-05-09T10:03:47.965Z,15.27
2023-05-09T10:08:52.176Z,16.50
2023-05-09T10:13:54.872Z,15.00
2023-05-09T10:18:57.667Z,14.45
2023-05-09T10:24:02.388Z,11.52
2023-05-09T10:29:11.593Z,10.80
2023-05-09T10:34:14.849Z,12.68
2023-05-09T10:39:19.897Z,14.90
2023-05-09T10:44:24.240Z,11.75
2023-05-09T10:49:27.012Z,11.68
2023-05-09T10:54:33.509Z,10.88
2023-05-09T10:59:39.035Z,11.77
2023-05-09T11:04:41.991Z,11.05
2023-05-09T11:09:46.001Z,11.07
2023-05-09T11:14:50.121Z,10.43
2023-05-09T11:20:01.111Z,13.63
2023-05-09T11:25:07.315Z,15.18
2023-05-09T11:30:12.025Z,16.73
2023-05-09T11:35:17.070Z,20.75
2023-05-09T11:40:22.696Z,15.27
2023-05-09T11:45:26.910Z,17.60
2023-05-09T11:50:29.600Z,18.75
2023-05-09T11:55:33.624Z,18.92
2023-05-09T12:00:37.225Z,16.33
2023-05-09T12:05:40.154Z,17.50
2023-05-09T12:10:44.095Z,17.13
2023-05-09T12:15:46.698Z,18.20
2023-05-09T12:25:56.528Z,17.00
2023-05-09T12:30:59.874Z,14.75
2023-05-09T12:36:04.770Z,17.08
2023-05-09T12:41:22.537Z,17.35
2023-05-09T12:46:32.905Z,14.63
2023-05-09T12:51:35.805Z,13.88
2023-05-09T12:56:40.351Z,13.88
2023-05-09T13:01:43.108Z,16.73
2023-05-09T13:06:49.321Z,12.70
2023-05-09T13:11:54.541Z,14.30
2023-05-09T13:16:57.229Z,12.05
2023-05-09T13:21:59.900Z,11.38
2023-05-09T13:32:07.457Z,12.07
2023-05-09T13:37:10.030Z,10.65
2023-05-09T13:42:14.017Z,10.70
2023-05-09T13:47:16.610Z,10.18
2023-05-09T13:52:19.416Z,10.98
2023-05-09T14:02:25.968Z,9.98
2023-05-09T14:12:32.722Z,8.57
2023-05-09T14:17:35.478Z,7.65
2023-05-09T14:27:42.169Z,5.63
2023-05-09T14:32:44.901Z,7.43
2023-05-09T14:37:47.755Z,6.43
2023-05-09T14:42:51.822Z,6.75
2023-05-09T14:47:54.418Z,6.32
2023-05-09T14:52:57.090Z,6.10
2023-05-09T14:58:01.123Z,5.75
2023-05-09T15:03:04.332Z,6.97
2023-05-09T15:08:07.831Z,4.70
2023-05-09T15:13:12.307Z,3.83
2023-05-09T15:18:16.624Z,4.15
2023-05-09T15:23:19.380Z,3.90
2023-05-09T15:28:23.783Z,2.97
2023-05-09T15:33:26.733Z,3.40
2023-05-09T15:43:33.152Z,3.38
2023-05-09T15:48:35.723Z,2.30
2023-05-09T15:53:38.350Z,2.63
2023-05-09T15:58:42.290Z,2.50
2023-05-09T16:03:45.066Z,2.47
2023-05-09T16:08:47.784Z,1.60
2023-05-09T16:13:51.811Z,2.13
2023-05-09T16:18:54.446Z,3.10
2023-05-09T16:23:58.374Z,3.05
2023-05-09T16:29:03.103Z,2.13
2023-05-09T16:34:05.723Z,2.85
2023-05-09T16:39:08.674Z,2.50
2023-05-09T16:44:12.922Z,2.80
2023-05-09T16:49:16.013Z,3.30
2023-05-09T16:59:22.508Z,3.38
2023-05-09T17:04:25.680Z,4.30
2023-05-09T17:09:30.363Z,4.43
2023-05-09T17:14:34.320Z,5.00
2023-05-09T17:19:36.906Z,4.93
2023-05-09T17:24:39.480Z,5.60
2023-05-09T17:29:43.403Z,5.85
2023-05-09T17:34:45.971Z,5.43
2023-05-09T17:39:48.567Z,5.43
2023-05-09T17:44:53.128Z,5.88
2023-05-09T17:49:55.711Z,8.20
2023-05-09T17:54:58.405Z,8.18
2023-05-09T18:00:02.365Z,11.50
2023-05-09T18:05:05.762Z,8.82
2023-05-09T18:10:10.056Z,10.80
2023-05-09T18:15:14.334Z,8.35
2023-05-09T18:20:17.253Z,10.18
2023-05-09T18:30:24.359Z,11.57
2023-05-09T18:35:27.000Z,10.70
2023-05-09T18:40:29.593Z,10.43
2023-05-09T18:45:33.765Z,10.43
2023-05-09T18:50:37.040Z,9.88
2023-05-09T18:55:39.906Z,11.27
2023-05-09T19:00:44.559Z,11.27
2023-05-09T19:05:47.437Z,12.95
2023-05-09T19:10:49.978Z,13.05
2023-05-09T19:15:53.887Z,18.73
2023-05-09T19:20:58.252Z,15.32
2023-05-09T19:26:00.882Z,11.95
2023-05-09T19:31:05.046Z,13.05
2023-05-09T19:36:08.090Z,12.20
2023-05-09T19:41:10.921Z,11.80
2023-05-09T19:46:14.999Z,13.65
2023-05-09T19:51:17.687Z,14.35
2023-05-09T19:56:20.523Z,15.10
2023-05-09T20:01:27.777Z,14.93
2023-05-09T20:06:30.689Z,16.08
2023-05-09T20:11:33.908Z,17.67
2023-05-09T20:21:42.088Z,17.13
2023-05-09T20:26:44.838Z,16.60
2023-05-09T20:31:48.012Z,17.02
2023-05-09T20:41:58.686Z,16.88
2023-05-09T20:47:01.345Z,19.73
2023-05-09T20:52:06.472Z,21.27
2023-05-09T20:57:09.267Z,21.15
2023-05-09T21:02:30.095Z,21.08
2023-05-09T21:07:34.330Z,20.15
2023-05-09T21:12:37.159Z,22.25
2023-05-09T21:17:40.873Z,20.95
2023-05-09T21:22:44.919Z,23.80
2023-05-09T21:27:47.642Z,18.88
2023-05-09T21:32:51.900Z,21.30
2023-05-09T21:37:56.068Z,22.35
2023-05-09T21:42:58.743Z,21.50
2023-05-09T21:48:01.676Z,22.65
2023-05-09T21:53:05.938Z,24.15
2023-05-09T21:58:08.483Z,26.85
2023-05-09T22:03:11.290Z,30.17
2023-05-09T22:08:15.190Z,30.08
2023-05-09T22:13:17.761Z,35.72
2023-05-09T22:18:20.248Z,32.57
2023-05-09T22:23:25.305Z,36.83
2023-05-09T22:28:28.033Z,35.35
2023-05-09T22:33:30.628Z,36.83
2023-05-09T22:38:34.529Z,34.80
2023-05-09T22:43:39.575Z,38.38
2023-05-09T22:48:42.630Z,38.28
2023-05-09T22:54:07.267Z,38.28
2023-05-09T22:59:10.830Z,24.90
2023-05-09T23:04:13.752Z,12.07
2023-05-09T23:09:18.668Z,10.57
2023-05-09T23:14:21.616Z,14.55
2023-05-09T23:19:24.281Z,11.38
2023-05-09T23:24:28.223Z,12.52
2023-05-09T23:29:30.995Z,15.00
2023-05-09T23:34:33.830Z,11.38
2023-05-09T23:39:38.858Z,13.18
2023-05-09T23:44:41.504Z,15.55
2023-05-09T23:49:44.340Z,14.07
2023-05-09T23:54:48.311Z,14.25
2023-05-09T23:59:51.896Z,14.57
